• Join FlightAware (Why Join?)
  • Login
  • US Flag 
Gobble Gobble! 
06:03AM EST


 

Airport Tracker/Info


-or-


 

Live Flight TrackerFlight Track Log ✈ N867DS ✈ 20-Jul-2014 ✈ KORL - F45

Flight Track Log - Related Links

Times and Time Zones

All times are in EDT time to prevent confusion due to time zone crossing. See the N867DS flight status page for this flight to view local times or setup timezone preferences in your user account.

Time Position Orientation Groundspeed Altitude Reporting Facility
EDT Latitude Longitude Course Direction KTS MPH feet Rate Location/Type
02:51PM 28.5500 -81.3333 147° Southeast 77 89 500  Level Orlando TRACON
02:52PM 28.5333 -81.3500 221° Southwest 67 77 1,000 540 Climbing Orlando TRACON
02:53PM 28.5333 -81.3833 270° West 77 89 1,500 600 Climbing Orlando TRACON
02:54PM 28.5167 -81.4000 221° Southwest 80 92 2,300 600 Climbing Orlando TRACON
02:56PM 28.4750 -81.3794 157° South 98 113 3,500 540 Climbing Miami Center
02:57PM 28.3649 -81.2130 147° Southeast  Level Estimated
02:57PM 28.4794 -81.3514 80° East 95 109 4,000  Level Miami Center
02:58PM 28.4847 -81.3161 80° East 113 130 3,900  Descending Miami Center
02:59PM 28.4833 -81.2667 92° East 135 155 4,000  Climbing Orlando TRACON
03:00PM 28.5000 -81.2333 60° Northeast 138 159 4,000  Level Orlando TRACON
03:02PM 28.4500 -81.1500 124° Southeast 132 152 4,000 120 Level Orlando TRACON
03:03PM 28.4333 -81.1167 120° Southeast 129 148 4,400 540 Climbing Orlando TRACON
03:04PM 28.4167 -81.1000 139° Southeast 95 109 5,100 660 Climbing Orlando TRACON
03:05PM 28.4000 -81.0667 120° Southeast 94 108 5,800 540 Climbing Orlando TRACON
03:07PM 28.3667 -81.0167 139° Southeast 96 110 6,800 420 Climbing Orlando TRACON
03:08PM 28.3503 -80.9939 129° Southeast 95 109 7,200 360 Climbing Miami Center
03:09PM 28.3303 -80.9733 138° Southeast 96 110 7,700 360 Climbing Miami Center
03:10PM 28.3131 -80.9503 130° Southeast 96 110 8,000 60 Climbing Miami Center
03:11PM 28.2889 -80.9203 132° Southeast 122 140 7,900 -60 Descending Miami Center
03:12PM 28.2631 -80.8892 133° Southeast 134 154 7,900  Level Miami Center
03:13PM 28.2178 -80.8836 174° South 138 159 7,900  Level Miami Center
03:14PM 28.1975 -80.8433 120° Southeast 144 166 7,900  Level Miami Center
03:16PM 28.1667 -80.8181 144° Southeast 144 166 7,900  Level Miami Center
03:17PM 28.1325 -80.7997 155° Southeast 136 157 8,000  Climbing Miami Center
03:19PM 28.0497 -80.7908 175° South 138 159 8,000  Level Miami Center
03:20PM 28.0089 -80.7869 175° South 138 159 8,000  Level Miami Center
03:21PM 27.9678 -80.7842 177° South 139 160 8,000  Level Miami Center
03:24PM 27.8464 -80.7744 135° Southeast 143 165 8,000  Level Miami Center
03:25PM 27.8064 -80.7717 176° South 139 160 8,000  Level Miami Center
03:26PM 27.7653 -80.7683 176° South 139 160 8,000  Level Miami Center
03:28PM 27.6856 -80.7619 176° South 138 159 8,000  Level Miami Center
03:29PM 27.6500 -80.7592 176° South 136 157 8,000  Level Miami Center
03:30PM 27.6122 -80.7558 176° South 132 152 8,000  Level Miami Center
03:31PM 27.5722 -80.7528 176° South 134 154 8,000 -60 Level Miami Center
03:32PM 27.5303 -80.7497 176° South 140 161 7,900 -300 Descending Miami Center
03:33PM 27.4878 -80.7461 176° South 143 165 7,500 -420 Descending Miami Center
03:34PM 27.4456 -80.7431 176° South 143 165 7,100 -420 Descending Miami Center
03:35PM 27.4069 -80.7397 176° South 143 165 6,700 -480 Descending Miami Center
03:36PM 27.3650 -80.7367 176° South 143 165 6,200 -420 Descending Miami Center
03:37PM 27.3236 -80.7333 176° South 143 165 5,900 -300 Descending Miami Center
03:38PM 27.2828 -80.7303 176° South 143 165 5,700 -300 Descending Miami Center
03:39PM 27.2422 -80.7272 176° South 141 162 5,300 -420 Descending Miami Center
03:40PM 27.2011 -80.7239 176° South 141 162 4,900 -300 Descending Miami Center
03:41PM 27.1614 -80.7208 176° South 140 161 4,700 -300 Descending Miami Center
03:42PM 27.1250 -80.7181 176° South 139 160 4,300 -360 Descending Miami Center
03:43PM 27.0847 -80.7147 176° South 139 160 4,000 -180 Descending Miami Center
03:44PM 27.0619 -80.6853 131° Southeast 119 137 4,000 -180 Level Miami Center
03:46PM 27.0522 -80.6453 105° East 123 142 3,700 -300 Descending Miami Center
03:47PM 27.0408 -80.6067 108° East 123 142 3,500 -360 Descending Miami Center
03:48PM 27.0306 -80.5664 106° East 128 147 3,000 -240 Descending Miami Center
03:49PM 27.0208 -80.5311 107° East 126 145 3,000  Level Miami Center
03:50PM 27.0086 -80.4881 108° East 126 145 3,000 -240 Level Miami Center
03:51PM 26.9939 -80.4481 112° Southeast 134 154 2,600 -540 Descending Miami Center
03:52PM 26.9744 -80.4117 121° Southeast 135 155 2,000 -540 Descending Miami Center
03:53PM 26.9692 -80.3717 98° East 135 155 1,600 -240 Descending Miami Center
03:54PM 26.9647 -80.3397 99° East 120 138 1,600  Level Miami Center
03:55PM 26.9256 -80.3317 170° South 132 152 1,600  Level Miami Center
03:57PM 26.8894 -80.2866 132° Southeast  Level FlightAware Approximate
04:04PM 26.8459 -80.2223 125° Southeast  Level Estimated
04:05PM 26.8459 -80.2223 North  Level Estimated
04:06PM 26.8459 -80.2223 125° Southeast  Level Estimated
04:07PM 26.8459 -80.2223 North  Level Estimated
04:08PM 26.8459 -80.2223 125° Southeast  Level Estimated
04:09PM 26.8459 -80.2223 North  Level Estimated